Time;durP1;ratioP1;P1;durP2;ratioP2;P2;SDS_P1;SDS_P2;PMS_P1;PMS_P2;Temp;Humidity;BMP_temperature;BMP_pressure;BME280_temperature;BME280_humidity;BME280_pressure;Samples;Min_cycle;Max_cycle;Signal;HPM_P1;HPM_P2
2021/06/01 00:01:44;;;;;;;0.30;0.30;;;;;;;9.07;49.16;98489.09;5034172;28;20029;-61
2021/06/01 00:04:11;;;;;;;0.60;0.60;;;;;;;10.83;45.94;98485.75;5055174;28;20083;-61
2021/06/01 00:06:38;;;;;;;0.13;0.13;;;;;;;12.42;43.53;98484.81;5055607;28;20036;-60
2021/06/01 00:09:06;;;;;;;0.20;0.20;;;;;;;13.77;41.35;98485.97;5055837;28;20029;-61
2021/06/01 00:11:32;;;;;;;0.30;0.30;;;;;;;14.91;40.22;98484.72;5054383;28;20521;-62
2021/06/01 00:13:58;;;;;;;0.20;0.20;;;;;;;15.92;39.28;98492.63;5055500;28;20041;-62
2021/06/01 00:16:24;;;;;;;0.30;0.30;;;;;;;16.73;38.53;98493.56;5055605;28;20028;-61
2021/06/01 00:18:50;;;;;;;0.20;0.20;;;;;;;17.49;37.99;98496.22;5055614;28;20404;-62
2021/06/01 00:21:16;;;;;;;0.77;0.52;;;;;;;18.16;37.47;98499.31;5055611;28;20141;-61
2021/06/01 00:23:43;;;;;;;0.20;0.20;;;;;;;18.75;36.87;98499.25;5055358;28;20223;-62
2021/06/01 00:26:11;;;;;;;0.20;0.20;;;;;;;19.38;36.90;98492.59;5055174;28;20033;-61
2021/06/01 00:28:38;;;;;;;0.15;0.15;;;;;;;20.06;36.61;98489.63;5055181;28;20029;-62
2021/06/01 00:31:06;;;;;;;1.20;0.45;;;;;;;20.74;35.92;98487.25;5055490;28;20090;-61
2021/06/01 00:33:32;;;;;;;0.20;0.20;;;;;;;21.45;35.58;98492.44;5055658;28;20036;-63
2021/06/01 00:35:58;;;;;;;0.30;0.30;;;;;;;22.11;34.98;98483.59;5055241;28;20090;-62
2021/06/01 00:38:24;;;;;;;0.20;0.20;;;;;;;22.75;34.32;98483.28;5055280;28;20025;-62
2021/06/01 00:40:50;;;;;;;0.10;0.10;;;;;;;23.48;34.13;98479.19;5055240;28;20498;-62
2021/06/01 00:43:16;;;;;;;0.10;0.10;;;;;;;24.20;33.39;98474.03;5055725;28;20105;-61
2021/06/01 00:45:42;;;;;;;0.43;0.43;;;;;;;24.83;32.99;98482.75;5055232;28;20107;-63
2021/06/01 00:48:08;;;;;;;0.17;0.17;;;;;;;25.22;33.00;98477.09;5037175;28;20200;-61
2021/06/01 00:50:34;;;;;;;0.10;0.10;;;;;;;25.56;32.69;98483.66;5055115;28;20078;-61
2021/06/01 00:53:00;;;;;;;0.10;0.10;;;;;;;25.86;32.81;98478.78;5054909;28;20052;-61
2021/06/01 00:55:27;;;;;;;1.20;0.20;;;;;;;26.03;32.40;98477.78;5055123;28;20033;-60
2021/06/01 00:57:53;;;;;;;0.20;0.20;;;;;;;26.15;32.78;98475.03;5054960;28;20025;-59
2021/06/01 01:03:07;;;;;;;0.10;0.10;;;;;;;26.74;32.55;98479.53;5054772;28;20059;-61
2021/06/01 01:05:36;;;;;;;0.10;0.10;;;;;;;27.08;32.10;98485.84;5054277;28;20032;-59
2021/06/01 01:11:02;;;;;;;0.10;0.10;;;;;;;27.85;31.58;98486.22;5054868;28;20091;-58
2021/06/01 01:13:40;;;;;;;0.15;0.13;;;;;;;28.17;31.28;98481.50;5054042;28;20565;-62
2021/06/01 01:16:07;;;;;;;0.10;0.10;;;;;;;28.63;31.04;98479.13;5051370;28;20581;-60
2021/06/01 01:18:34;;;;;;;0.10;0.10;;;;;;;29.08;30.45;98481.84;5069113;28;20039;-60
2021/06/01 01:21:09;;;;;;;1.05;0.63;;;;;;;29.51;30.09;98480.06;5052488;28;20029;-58
2021/06/01 01:23:40;;;;;;;0.20;0.20;;;;;;;29.90;29.94;98479.28;5054450;28;20131;-60
2021/06/01 01:26:11;;;;;;;0.10;0.10;;;;;;;30.24;29.43;98488.84;5054123;28;20064;-59
2021/06/01 01:28:56;;;;;;;0.10;0.10;;;;;;;30.43;29.44;98482.38;5054287;28;20040;-55
2021/06/01 01:31:48;;;;;;;0.20;0.20;;;;;;;30.51;29.49;98478.50;5054291;28;20541;-58
2021/06/01 01:34:15;;;;;;;0.30;0.20;;;;;;;30.73;29.37;98476.84;5054121;28;20132;-56
2021/06/01 01:36:42;;;;;;;0.15;0.15;;;;;;;31.05;29.02;98475.78;5054000;28;20025;-61
2021/06/01 01:39:10;;;;;;;0.10;0.10;;;;;;;31.53;28.56;98475.28;5053810;28;20040;-60
2021/06/01 01:41:37;;;;;;;0.10;0.10;;;;;;;32.04;27.90;98482.44;5049592;28;20028;-61
2021/06/01 01:44:12;;;;;;;0.47;0.30;;;;;;;32.41;27.59;98476.81;5051636;28;20036;-56
2021/06/01 01:49:22;;;;;;;0.10;0.10;;;;;;;33.16;26.94;98471.00;5052067;28;20135;-59
2021/06/01 01:51:53;;;;;;;0.70;0.65;;;;;;;33.52;26.77;98473.28;5052548;28;20115;-59
2021/06/01 01:54:23;;;;;;;0.85;0.65;;;;;;;33.81;26.58;98474.28;5053501;28;20040;-59
2021/06/01 01:56:54;;;;;;;0.10;0.10;;;;;;;34.13;26.61;98472.75;5053789;28;20506;-59
2021/06/01 01:59:24;;;;;;;2.42;0.65;;;;;;;34.45;26.07;98470.03;5053830;28;20490;-61
2021/06/01 02:01:53;;;;;;;0.15;0.15;;;;;;;34.82;25.64;98473.75;5069203;28;20195;-62
2021/06/01 02:04:21;;;;;;;0.20;0.20;;;;;;;35.32;25.03;98475.81;5069877;28;20058;-63
2021/06/01 02:06:47;;;;;;;2.08;0.40;;;;;;;36.19;24.39;98482.06;5070559;28;20059;-59
2021/06/01 02:09:14;;;;;;;0.25;0.25;;;;;;;36.79;24.03;98485.81;5069778;28;20480;-64
2021/06/01 02:11:40;;;;;;;0.30;0.30;;;;;;;36.96;24.27;98481.22;5069016;28;20028;-59
2021/06/01 02:14:06;;;;;;;0.43;0.43;;;;;;;36.95;24.17;98482.44;5070676;28;20036;-59
2021/06/01 02:16:39;;;;;;;0.40;0.40;;;;;;;36.91;24.52;98470.19;5070096;28;20375;-61
2021/06/01 02:19:07;;;;;;;4.22;0.60;;;;;;;37.07;24.04;98466.78;5063978;28;20082;-63
2021/06/01 02:22:26;;;;;;;0.63;0.63;;;;;;;37.20;24.02;98467.09;5069803;28;20028;-64
2021/06/01 02:24:59;;;;;;;0.10;0.10;;;;;;;37.40;24.12;98473.88;5066319;28;20093;-62
2021/06/01 02:27:58;;;;;;;0.70;0.70;;;;;;;37.69;23.85;98477.25;5069240;28;20453;-62
2021/06/01 02:30:54;;;;;;;0.30;0.30;;;;;;;38.02;23.49;98469.06;5069328;28;20036;-62
2021/06/01 02:33:23;;;;;;;0.17;0.17;;;;;;;38.17;23.51;98471.75;5070581;28;20485;-63
2021/06/01 02:35:50;;;;;;;0.30;0.28;;;;;;;38.37;23.52;98481.34;5070458;28;20039;-61
2021/06/01 02:38:17;;;;;;;0.43;0.43;;;;;;;38.58;22.89;98470.78;5068710;28;20024;-61
2021/06/01 02:40:44;;;;;;;0.10;0.10;;;;;;;38.75;22.90;98471.75;5070331;28;20410;-61
2021/06/01 02:43:13;;;;;;;0.70;0.52;;;;;;;38.90;22.91;98469.47;5069818;28;20032;-61
2021/06/01 02:45:44;;;;;;;0.10;0.10;;;;;;;39.06;22.63;98468.78;5069971;28;20040;-61
2021/06/01 02:48:12;;;;;;;0.57;0.35;;;;;;;39.14;22.80;98469.53;5070413;28;20378;-61
2021/06/01 02:50:42;;;;;;;0.32;0.32;;;;;;;39.18;22.79;98468.22;5067130;28;20036;-62
2021/06/01 02:53:10;;;;;;;0.20;0.20;;;;;;;39.31;22.37;98473.31;5069955;28;20405;-61
2021/06/01 02:55:36;;;;;;;0.10;0.10;;;;;;;39.39;22.55;98472.75;5070137;28;20033;-62
2021/06/01 02:58:06;;;;;;;0.65;0.65;;;;;;;39.47;22.51;98467.66;5053341;28;20055;-62
2021/06/01 03:00:35;;;;;;;0.45;0.45;;;;;;;39.60;22.23;98462.91;5065244;28;20113;-63
2021/06/01 03:03:12;;;;;;;0.20;0.20;;;;;;;39.66;22.23;98460.34;5069547;28;20048;-64
2021/06/01 03:05:40;;;;;;;0.52;0.52;;;;;;;39.73;22.06;98463.06;5068152;28;20125;-65
2021/06/01 03:08:29;;;;;;;0.20;0.20;;;;;;;39.80;22.07;98467.06;5068784;28;20025;-61
2021/06/01 03:10:57;;;;;;;0.15;0.15;;;;;;;39.84;22.02;98462.03;5068211;28;20401;-62
2021/06/01 03:13:24;;;;;;;0.30;0.30;;;;;;;39.86;21.81;98468.19;5070305;28;20697;-62
2021/06/01 03:15:50;;;;;;;0.90;0.40;;;;;;;39.88;21.79;98466.47;5069580;28;20516;-62
2021/06/01 03:18:16;;;;;;;0.77;0.32;;;;;;;40.07;21.64;98470.59;5070144;28;20031;-62
2021/06/01 03:20:42;;;;;;;5.07;0.77;;;;;;;40.22;21.38;98471.09;5068142;28;20028;-62
2021/06/01 03:23:08;;;;;;;0.10;0.10;;;;;;;40.41;21.12;98478.06;5069539;28;20063;-63
2021/06/01 03:25:34;;;;;;;0.20;0.20;;;;;;;40.54;20.75;98469.59;5068545;28;20033;-62
2021/06/01 03:28:00;;;;;;;0.82;0.32;;;;;;;40.74;21.00;98469.53;5069559;28;20115;-62
2021/06/01 03:30:27;;;;;;;0.88;0.52;;;;;;;40.81;20.53;98468.53;5070236;28;20031;-62
2021/06/01 03:32:56;;;;;;;0.10;0.10;;;;;;;40.83;20.59;98479.59;5069711;28;20122;-63
2021/06/01 03:35:25;;;;;;;0.10;0.10;;;;;;;40.94;20.33;98469.47;5069649;28;20036;-61
2021/06/01 03:37:51;;;;;;;0.30;0.30;;;;;;;40.92;20.26;98477.75;5073220;28;20032;-61
2021/06/01 03:40:18;;;;;;;0.90;0.43;;;;;;;41.03;20.26;98471.69;5073720;28;20045;-62
2021/06/01 03:42:44;;;;;;;0.10;0.10;;;;;;;41.11;19.99;98473.16;5073909;28;20031;-63
2021/06/01 03:45:11;;;;;;;0.43;0.40;;;;;;;41.07;19.97;98460.91;5074066;28;20035;-62
2021/06/01 03:47:37;;;;;;;7.03;0.43;;;;;;;41.28;19.48;98465.28;5073076;28;20029;-62
2021/06/01 03:50:04;;;;;;;0.65;0.65;;;;;;;41.66;19.38;98453.16;5073838;28;20036;-62
2021/06/01 03:52:30;;;;;;;0.22;0.20;;;;;;;41.98;19.09;98459.28;5073131;28;20498;-62
2021/06/01 03:54:56;;;;;;;0.20;0.20;;;;;;;42.16;18.63;98448.00;5073485;28;20040;-61
2021/06/01 03:57:22;;;;;;;0.13;0.13;;;;;;;42.33;18.39;98451.63;5071783;28;20029;-63
2021/06/01 03:59:49;;;;;;;0.10;0.10;;;;;;;42.36;18.25;98438.34;5069537;28;20101;-63
2021/06/01 04:02:15;;;;;;;0.20;0.20;;;;;;;42.35;18.56;98434.66;5073686;28;20457;-62
2021/06/01 04:04:41;;;;;;;0.30;0.30;;;;;;;42.36;18.25;98436.28;5072564;28;20151;-62
2021/06/01 04:07:09;;;;;;;0.10;0.10;;;;;;;42.36;18.32;98427.63;5072826;28;20085;-64
2021/06/01 04:09:35;;;;;;;0.10;0.10;;;;;;;42.34;18.38;98435.94;5071340;28;20032;-62
2021/06/01 04:12:01;;;;;;;0.10;0.10;;;;;;;42.15;18.21;98417.53;5073095;28;20032;-63
2021/06/01 04:14:27;;;;;;;0.20;0.20;;;;;;;42.04;18.33;98411.31;5073320;28;20139;-62
2021/06/01 04:16:55;;;;;;;0.20;0.20;;;;;;;42.01;18.30;98407.25;5072610;28;20036;-64
2021/06/01 04:19:21;;;;;;;0.10;0.10;;;;;;;41.65;18.50;98413.25;5073049;28;20039;-62
2021/06/01 04:21:46;;;;;;;0.20;0.20;;;;;;;41.36;18.39;98425.63;5072408;28;20055;-62
2021/06/01 04:24:12;;;;;;;0.10;0.10;;;;;;;40.97;18.75;98419.59;5072845;28;20037;-62
2021/06/01 04:26:38;;;;;;;0.10;0.10;;;;;;;40.84;18.79;98418.69;5073028;28;20540;-62
2021/06/01 04:29:04;;;;;;;0.10;0.10;;;;;;;41.09;18.40;98412.31;5071137;28;20091;-63
2021/06/01 04:31:31;;;;;;;0.10;0.10;;;;;;;40.73;18.34;98418.19;5071714;28;20186;-63
2021/06/01 04:33:56;;;;;;;0.10;0.10;;;;;;;38.60;20.33;98408.03;5071126;28;20647;-63
2021/06/01 04:36:24;;;;;;;0.10;0.10;;;;;;;35.77;22.82;98404.69;5073292;28;20033;-63
2021/06/01 04:38:51;;;;;;;0.20;0.20;;;;;;;33.40;24.69;98411.03;5071187;28;20036;-63
2021/06/01 04:41:16;;;;;;;0.10;0.10;;;;;;;31.86;25.59;98411.25;5071293;28;20032;-62
2021/06/01 04:43:42;;;;;;;0.10;0.10;;;;;;;31.25;25.68;98408.44;5072898;28;20051;-63
2021/06/01 04:46:08;;;;;;;0.10;0.10;;;;;;;32.98;23.11;98396.94;5072396;28;20524;-63
2021/06/01 04:48:33;;;;;;;0.45;0.20;;;;;;;35.19;20.58;98410.59;5072142;28;20410;-61
2021/06/01 04:50:59;;;;;;;0.20;0.17;;;;;;;35.96;19.66;98409.94;5064006;28;20033;-63
2021/06/01 04:53:25;;;;;;;0.10;0.10;;;;;;;35.86;19.63;98402.22;5061940;28;20486;-62
2021/06/01 04:55:51;;;;;;;0.10;0.10;;;;;;;35.15;20.45;98397.56;5071807;28;20036;-61
2021/06/01 04:58:16;;;;;;;0.10;0.10;;;;;;;33.63;21.57;98387.94;5072406;28;20036;-63
2021/06/01 05:00:42;;;;;;;0.10;0.10;;;;;;;33.51;21.51;98404.19;5072685;28;20516;-61
2021/06/01 05:03:08;;;;;;;0.10;0.10;;;;;;;33.03;21.50;98392.91;5071638;28;20057;-62
2021/06/01 05:05:34;;;;;;;0.20;0.20;;;;;;;32.72;21.71;98392.28;5071011;28;20043;-62
2021/06/01 05:07:59;;;;;;;0.08;0.08;;;;;;;32.94;21.42;98383.91;5072067;28;20389;-62
2021/06/01 05:10:25;;;;;;;0.10;0.10;;;;;;;33.87;20.19;98392.94;5072308;28;20032;-62
2021/06/01 05:12:51;;;;;;;0.10;0.10;;;;;;;34.49;19.64;98376.78;5070615;28;20029;-63
2021/06/01 05:15:17;;;;;;;0.08;0.08;;;;;;;35.10;19.26;98393.06;5072307;28;20048;-62
2021/06/01 05:17:43;;;;;;;0.10;0.10;;;;;;;35.96;18.01;98375.66;5071882;28;20050;-62
2021/06/01 05:20:09;;;;;;;0.10;0.10;;;;;;;36.53;17.69;98369.97;5070338;28;20028;-61
2021/06/01 05:22:35;;;;;;;0.10;0.10;;;;;;;37.18;17.50;98375.94;5070554;28;20025;-63
2021/06/01 05:25:01;;;;;;;0.10;0.10;;;;;;;37.92;16.64;98372.59;5071417;28;20048;-62
2021/06/01 05:27:27;;;;;;;0.10;0.10;;;;;;;38.85;16.19;98370.34;5071836;28;20033;-62
2021/06/01 05:30:03;;;;;;;0.10;0.10;;;;;;;38.52;16.87;98372.13;5071252;28;20036;-62
2021/06/01 05:35:31;;;;;;;0.10;0.10;;;;;;;38.09;17.24;98369.91;5071642;28;20028;-62
2021/06/01 05:37:56;;;;;;;0.10;0.10;;;;;;;38.30;16.89;98375.34;5071412;28;20102;-63
2021/06/01 05:40:22;;;;;;;0.20;0.20;;;;;;;38.75;16.44;98371.34;5070871;28;20480;-63
2021/06/01 05:42:48;;;;;;;0.08;0.08;;;;;;;38.97;16.61;98359.47;5071231;28;20082;-62
2021/06/01 05:45:14;;;;;;;0.00;0.00;;;;;;;38.54;16.91;98361.03;5070202;28;20044;-62
2021/06/01 05:47:40;;;;;;;0.10;0.10;;;;;;;37.87;16.91;98358.78;5070920;28;20394;-62
2021/06/01 05:50:06;;;;;;;0.00;0.00;;;;;;;35.42;19.24;98366.50;5071355;28;20075;-62
2021/06/01 05:52:35;;;;;;;0.00;0.00;;;;;;;32.80;21.02;98339.97;5070868;28;20127;-63
2021/06/01 05:55:05;;;;;;;0.10;0.10;;;;;;;30.80;22.64;98344.97;5070806;28;20056;-64
2021/06/01 05:57:31;;;;;;;0.10;0.10;;;;;;;29.48;23.54;98351.50;5071351;28;20112;-61
2021/06/01 05:59:56;;;;;;;0.10;0.10;;;;;;;28.72;23.75;98348.19;5070845;28;20250;-62
2021/06/01 06:02:23;;;;;;;0.10;0.10;;;;;;;28.24;23.49;98336.91;5071345;28;20440;-61
2021/06/01 06:04:48;;;;;;;0.00;0.00;;;;;;;27.60;23.66;98340.44;5070036;28;20044;-61
2021/06/01 06:07:14;;;;;;;0.10;0.10;;;;;;;27.01;24.05;98333.47;5071845;28;20086;-63
2021/06/01 06:09:40;;;;;;;0.10;0.10;;;;;;;26.55;23.99;98347.72;5073701;28;20036;-62
2021/06/01 06:12:06;;;;;;;0.10;0.10;;;;;;;26.02;23.77;98343.97;5073395;28;20036;-61
2021/06/01 06:14:32;;;;;;;0.08;0.08;;;;;;;25.30;24.29;98341.34;5073409;28;20082;-61
2021/06/01 06:17:07;;;;;;;0.00;0.00;;;;;;;24.44;24.72;98333.16;5071973;28;20028;-62
2021/06/01 06:19:41;;;;;;;0.20;0.20;;;;;;;23.55;25.51;98328.19;5072993;28;20074;-61
2021/06/01 06:22:07;;;;;;;;;;;;;;;22.76;26.10;98325.41;5073413;28;20180;-61
2021/06/01 06:24:33;;;;;;;0.10;0.10;;;;;;;22.13;26.34;98330.31;5072943;28;19917;-62
2021/06/01 06:26:58;;;;;;;0.10;0.10;;;;;;;21.63;26.43;98337.81;5072366;28;20490;-61
2021/06/01 06:29:24;;;;;;;0.17;0.17;;;;;;;21.13;26.70;98347.13;5072990;28;20085;-60
2021/06/01 06:31:50;;;;;;;0.10;0.10;;;;;;;20.86;26.64;98339.66;5073426;28;20118;-62
2021/06/01 06:34:15;;;;;;;0.10;0.10;;;;;;;20.77;26.46;98335.97;5073565;28;20032;-62
2021/06/01 06:36:41;;;;;;;0.10;0.10;;;;;;;20.64;26.24;98326.47;5073081;28;20592;-61
2021/06/01 06:39:08;;;;;;;0.10;0.10;;;;;;;20.39;26.22;98334.28;5071635;28;20052;-62
2021/06/01 06:41:34;;;;;;;0.10;0.10;;;;;;;20.02;26.47;98322.19;5072780;28;20036;-61
2021/06/01 06:44:00;;;;;;;0.10;0.10;;;;;;;19.63;26.73;98320.69;5071438;28;20599;-61
2021/06/01 06:46:34;;;;;;;0.70;0.22;;;;;;;19.23;26.83;98318.31;5072846;28;20409;-61
2021/06/01 06:49:02;;;;;;;0.10;0.10;;;;;;;18.72;27.11;98306.00;5072773;28;20124;-61
2021/06/01 06:51:28;;;;;;;0.20;0.20;;;;;;;18.39;27.30;98316.22;5071460;28;20031;-61
2021/06/01 06:53:56;;;;;;;0.10;0.10;;;;;;;18.14;27.24;98320.97;5072573;28;20032;-62
2021/06/01 06:56:24;;;;;;;1.02;1.00;;;;;;;17.95;27.43;98314.56;5072527;28;20033;-62
2021/06/01 06:58:51;;;;;;;0.38;0.13;;;;;;;17.71;27.45;98315.34;5072826;28;20036;-61
2021/06/01 07:01:17;;;;;;;0.10;0.10;;;;;;;17.51;27.46;98319.97;5071209;28;20029;-61
2021/06/01 07:03:43;;;;;;;0.10;0.10;;;;;;;17.30;27.68;98321.28;5072342;28;20102;-61
2021/06/01 07:06:09;;;;;;;0.10;0.10;;;;;;;16.98;27.59;98306.81;5072518;28;20459;-63
2021/06/01 07:08:35;;;;;;;0.10;0.10;;;;;;;16.74;27.97;98312.25;5055399;28;20032;-62
2021/06/01 07:11:01;;;;;;;0.10;0.10;;;;;;;16.54;28.08;98315.16;5072585;28;20089;-62
2021/06/01 07:13:48;;;;;;;0.10;0.10;;;;;;;16.36;27.90;98303.63;5072723;28;20035;-62
2021/06/01 07:16:14;;;;;;;0.10;0.10;;;;;;;16.37;27.79;98308.06;5072178;28;20039;-63
2021/06/01 07:18:41;;;;;;;0.10;0.10;;;;;;;16.37;27.49;98308.06;5072616;28;20054;-61
2021/06/01 07:21:09;;;;;;;0.10;0.10;;;;;;;16.32;27.62;98296.97;5072350;28;20102;-62
2021/06/01 07:23:36;;;;;;;0.10;0.10;;;;;;;16.26;27.67;98295.34;5070968;28;20082;-61
2021/06/01 07:26:03;;;;;;;0.10;0.10;;;;;;;16.19;27.66;98287.34;5072157;28;20063;-62
2021/06/01 07:28:29;;;;;;;0.10;0.10;;;;;;;16.08;27.54;98294.06;5072563;28;20024;-61
2021/06/01 07:30:54;;;;;;;0.10;0.10;;;;;;;16.01;27.40;98288.81;5072714;28;20486;-62
2021/06/01 07:33:20;;;;;;;0.10;0.10;;;;;;;15.97;27.72;98289.66;5072833;28;20031;-65
2021/06/01 07:35:46;;;;;;;0.80;0.20;;;;;;;15.93;27.33;98283.88;5072602;28;20550;-61
2021/06/01 07:38:13;;;;;;;0.20;0.20;;;;;;;15.89;27.47;98285.56;5070943;28;20510;-61
2021/06/01 07:40:40;;;;;;;0.10;0.10;;;;;;;15.89;27.19;98268.94;5072406;28;20494;-61
2021/06/01 07:43:06;;;;;;;0.10;0.10;;;;;;;15.86;27.28;98280.59;5072132;28;20517;-61
2021/06/01 07:45:32;;;;;;;0.10;0.10;;;;;;;15.84;27.19;98272.56;5070786;28;20024;-62
2021/06/01 07:47:59;;;;;;;0.10;0.10;;;;;;;15.77;27.47;98258.97;5070767;28;20031;-60
2021/06/01 07:50:25;;;;;;;0.10;0.10;;;;;;;15.72;27.70;98263.69;5070674;28;20028;-61
2021/06/01 07:52:51;;;;;;;0.10;0.10;;;;;;;15.72;27.32;98255.41;5072071;28;20029;-60
2021/06/01 07:55:16;;;;;;;0.10;0.10;;;;;;;15.70;27.43;98261.22;5072586;28;20121;-62
2021/06/01 07:57:42;;;;;;;0.10;0.10;;;;;;;15.72;27.41;98264.56;5072591;28;20051;-64
2021/06/01 08:00:13;;;;;;;0.10;0.10;;;;;;;15.65;27.54;98255.72;5067462;28;20078;-62
2021/06/01 08:02:39;;;;;;;0.20;0.20;;;;;;;15.67;27.68;98255.44;5050962;28;20032;-63
2021/06/01 08:05:11;;;;;;;0.10;0.10;;;;;;;15.69;27.33;98248.47;5068259;28;20032;-63
2021/06/01 08:07:41;;;;;;;0.10;0.10;;;;;;;15.67;27.33;98252.66;5068602;28;20032;-63
2021/06/01 08:10:07;;;;;;;0.10;0.10;;;;;;;15.65;27.83;98247.41;5067651;28;20578;-61
2021/06/01 08:12:34;;;;;;;0.13;0.13;;;;;;;15.64;27.43;98240.22;5067434;28;20036;-63
2021/06/01 08:15:00;;;;;;;0.22;0.22;;;;;;;15.60;27.43;98239.09;5069186;28;20029;-63
2021/06/01 08:17:26;;;;;;;0.10;0.10;;;;;;;15.63;27.66;98243.25;5069273;28;20036;-62
2021/06/01 08:19:55;;;;;;;0.82;0.47;;;;;;;15.71;27.33;98246.28;5069452;28;20567;-61
2021/06/01 08:24:49;;;;;;;0.20;0.20;;;;;;;15.82;27.31;98230.47;5071821;28;20063;-62
2021/06/01 08:27:15;;;;;;;0.10;0.10;;;;;;;15.82;27.35;98229.66;5073195;28;20346;-63
2021/06/01 08:29:41;;;;;;;0.10;0.10;;;;;;;15.82;27.73;98227.72;5072689;28;20037;-65
2021/06/01 08:32:07;;;;;;;0.10;0.10;;;;;;;15.86;27.37;98230.75;5072842;28;20044;-61
2021/06/01 08:34:33;;;;;;;0.57;0.20;;;;;;;15.88;27.37;98220.22;5072435;28;20127;-62
2021/06/01 08:36:59;;;;;;;0.10;0.10;;;;;;;15.88;27.42;98220.22;5072580;28;20608;-64
2021/06/01 08:39:34;;;;;;;0.20;0.20;;;;;;;15.88;27.67;98217.44;5071593;28;20509;-63
2021/06/01 08:42:00;;;;;;;0.10;0.10;;;;;;;15.88;27.73;98217.44;5072951;28;20444;-63
2021/06/01 08:44:27;;;;;;;0.10;0.10;;;;;;;15.85;27.82;98215.25;5072287;28;20040;-63
2021/06/01 08:46:55;;;;;;;0.10;0.10;;;;;;;15.82;27.69;98213.88;5072613;28;20071;-64
2021/06/01 08:49:21;;;;;;;0.10;0.10;;;;;;;15.81;27.44;98211.38;5072469;28;20032;-64
2021/06/01 08:51:49;;;;;;;0.10;0.10;;;;;;;15.79;27.62;98208.91;5072410;28;20094;-61
2021/06/01 08:54:15;;;;;;;0.10;0.10;;;;;;;15.77;27.68;98203.63;5072532;28;20082;-65
2021/06/01 08:56:41;;;;;;;0.10;0.10;;;;;;;15.78;27.75;98201.69;5072155;28;20033;-64
2021/06/01 08:59:09;;;;;;;0.20;0.20;;;;;;;15.84;27.81;98194.22;5071485;28;20032;-61
2021/06/01 09:01:35;;;;;;;0.10;0.10;;;;;;;15.91;27.57;98184.47;5071854;28;20028;-63
2021/06/01 09:04:09;;;;;;;0.10;0.10;;;;;;;15.99;27.70;98191.38;5071919;28;20475;-63
2021/06/01 09:06:48;;;;;;;0.10;0.10;;;;;;;16.03;27.68;98191.63;5072506;28;20151;-61
2021/06/01 09:09:39;;;;;;;0.10;0.10;;;;;;;16.06;27.87;98197.41;5072587;28;20033;-62
2021/06/01 09:22:58;;;;;;;0.10;0.10;;;;;;;16.05;27.74;98183.88;5070163;28;20066;-62
2021/06/01 09:25:42;;;;;;;0.15;0.15;;;;;;;16.12;27.77;98176.03;5051432;28;20048;-63
2021/06/01 09:28:10;;;;;;;0.10;0.10;;;;;;;16.15;27.97;98182.94;5070325;28;20064;-62
2021/06/01 09:31:01;;;;;;;0.20;0.20;;;;;;;16.21;27.70;98184.56;5072192;28;20060;-61
2021/06/01 09:33:29;;;;;;;0.10;0.10;;;;;;;16.24;28.07;98186.78;5066256;28;20048;-61
2021/06/01 09:36:00;;;;;;;0.10;0.10;;;;;;;16.28;27.90;98183.16;5068392;28;20028;-66
2021/06/01 09:38:31;;;;;;;0.10;0.10;;;;;;;16.32;28.09;98182.56;5056802;28;20072;-62
2021/06/01 09:41:07;;;;;;;0.10;0.10;;;;;;;16.32;27.95;98171.50;5069096;28;20452;-61
2021/06/01 09:43:34;;;;;;;0.10;0.10;;;;;;;16.34;28.07;98183.09;5062155;28;20032;-61
2021/06/01 09:46:36;;;;;;;0.10;0.10;;;;;;;16.38;27.80;98181.41;5051223;28;20437;-62
2021/06/01 09:49:14;;;;;;;0.10;0.10;;;;;;;16.40;28.16;98179.19;5068861;28;20445;-63
2021/06/01 09:51:44;;;;;;;0.10;0.10;;;;;;;16.39;28.06;98183.91;5071180;28;20119;-62
2021/06/01 09:54:41;;;;;;;0.10;0.10;;;;;;;16.43;27.90;98171.13;5069628;28;20041;-62
2021/06/01 09:57:20;;;;;;;0.10;0.10;;;;;;;16.43;28.04;98160.03;5066771;28;20067;-63
2021/06/01 10:00:09;;;;;;;0.10;0.10;;;;;;;16.46;27.84;98162.22;5069595;28;20039;-62
2021/06/01 10:02:35;;;;;;;0.10;0.10;;;;;;;16.49;27.83;98162.75;5068787;28;20034;-63
2021/06/01 10:05:27;;;;;;;0.10;0.10;;;;;;;16.50;27.88;98156.09;5071239;28;20024;-64
2021/06/01 10:07:55;;;;;;;0.10;0.10;;;;;;;16.52;27.82;98159.41;5070226;28;20059;-59
2021/06/01 10:10:30;;;;;;;0.10;0.10;;;;;;;16.59;27.75;98151.59;5070544;28;20040;-59
2021/06/01 10:12:59;;;;;;;0.10;0.10;;;;;;;16.63;27.99;98152.66;5070770;28;20177;-62
2021/06/01 10:15:27;;;;;;;0.20;0.20;;;;;;;16.71;27.58;98146.50;5069374;28;20052;-61
2021/06/01 10:17:53;;;;;;;0.20;0.20;;;;;;;16.78;27.88;98147.00;5069156;28;20130;-63
2021/06/01 10:20:24;;;;;;;0.20;0.20;;;;;;;16.81;27.58;98149.19;5069818;28;20064;-62
2021/06/01 10:22:51;;;;;;;0.10;0.10;;;;;;;16.84;27.79;98138.63;5070159;28;20060;-62
2021/06/01 10:25:18;;;;;;;0.10;0.10;;;;;;;16.86;27.87;98134.44;5069859;28;20090;-62
2021/06/01 10:27:45;;;;;;;0.10;0.10;;;;;;;16.86;27.82;98136.38;5069297;28;20467;-64
2021/06/01 10:30:13;;;;;;;0.20;0.20;;;;;;;16.83;27.86;98129.47;5069737;28;20077;-63
2021/06/01 10:32:52;;;;;;;0.40;0.15;;;;;;;16.92;27.59;98136.06;5070579;28;20025;-63
2021/06/01 10:35:21;;;;;;;0.17;0.17;;;;;;;16.96;27.61;98136.28;5068278;28;20517;-63
2021/06/01 10:43:55;;;;;;;0.10;0.10;;;;;;;16.97;27.99;98124.09;5070349;28;20182;-63
2021/06/01 10:52:11;;;;;;;0.10;0.10;;;;;;;17.02;27.85;98112.97;5028066;28;20135;-64
2021/06/01 10:54:50;;;;;;;0.10;0.10;;;;;;;17.04;27.90;98113.47;4970462;28;20166;-64
2021/06/01 10:57:17;;;;;;;0.15;0.13;;;;;;;17.10;27.59;98112.28;4988046;28;20052;-61
2021/06/01 10:59:59;;;;;;;0.10;0.10;;;;;;;17.13;27.78;98108.91;4988573;28;20046;-62
2021/06/01 11:02:26;;;;;;;0.13;0.13;;;;;;;17.18;27.44;98105.25;4985804;28;20097;-61
2021/06/01 11:05:17;;;;;;;0.30;0.30;;;;;;;17.23;27.57;98107.16;4987814;28;20147;-62
2021/06/01 11:07:54;;;;;;;0.10;0.10;;;;;;;17.22;27.67;98108.28;4987851;28;20078;-61
2021/06/01 11:10:40;;;;;;;0.10;0.10;;;;;;;17.23;27.92;98113.53;4987815;28;20065;-62
2021/06/01 11:13:08;;;;;;;0.10;0.10;;;;;;;17.28;27.62;98107.09;4987177;28;20143;-61
2021/06/01 11:15:36;;;;;;;0.73;0.73;;;;;;;17.32;27.74;98102.63;4988469;28;20037;-63
2021/06/01 11:18:16;;;;;;;0.10;0.10;;;;;;;17.39;27.68;98108.63;4988325;28;20069;-62
2021/06/01 11:35:23;;;;;;;0.10;0.10;;;;;;;17.43;27.60;98093.03;4989315;28;20061;-61
2021/06/01 11:37:57;;;;;;;0.10;0.10;;;;;;;17.49;27.90;98085.44;5001445;28;20042;-61
2021/06/01 11:40:32;;;;;;;;;;;;;;;17.52;27.74;98087.66;5008042;28;20037;-62
2021/06/01 11:43:17;;;;;;;0.15;0.15;;;;;;;17.55;27.91;98092.59;4988648;28;20399;-62
2021/06/01 11:51:26;;;;;;;0.10;0.10;;;;;;;17.94;27.51;98082.34;4990113;28;20400;-60
2021/06/01 11:54:02;;;;;;;3.00;0.30;;;;;;;18.10;27.32;98083.78;5007213;28;20077;-63
2021/06/01 12:02:16;;;;;;;0.10;0.10;;;;;;;18.36;27.19;98077.81;5072269;28;20448;-61
2021/06/01 12:13:51;;;;;;;0.10;0.10;;;;;;;18.27;27.48;98076.81;5044735;28;20051;-61
2021/06/01 12:19:13;;;;;;;0.10;0.10;;;;;;;18.51;27.31;98077.53;5042571;28;20076;-63
2021/06/01 12:21:41;;;;;;;0.10;0.10;;;;;;;18.66;27.54;98075.59;5044999;28;20068;-62
2021/06/01 12:24:14;;;;;;;0.10;0.10;;;;;;;18.74;27.41;98077.66;5050442;28;20843;-62
2021/06/01 12:27:01;;;;;;;0.32;0.30;;;;;;;18.76;27.54;98069.84;5032266;28;20556;-63
2021/06/01 12:32:34;;;;;;;0.10;0.10;;;;;;;18.65;27.60;98071.16;5031221;28;20051;-62
2021/06/01 12:43:26;;;;;;;0.10;0.10;;;;;;;18.56;27.77;98059.91;4976606;28;20045;-62
2021/06/01 13:07:22;;;;;;;0.32;0.30;;;;;;;18.37;28.27;98043.31;5010066;28;20056;-60
2021/06/01 13:19:15;;;;;;;0.10;0.10;;;;;;;18.36;28.36;98038.91;5009936;28;20178;-61
2021/06/01 13:37:57;;;;;;;0.10;0.10;;;;;;;18.31;28.56;98037.00;5069413;28;20043;-64
2021/06/01 13:46:04;;;;;;;0.10;0.10;;;;;;;18.16;28.79;98035.31;5068856;28;20048;-62
2021/06/01 13:56:28;;;;;;;0.10;0.10;;;;;;;17.66;29.62;98021.09;5071001;28;20402;-64
2021/06/01 14:09:38;;;;;;;0.20;0.20;;;;;;;17.71;29.34;98034.91;5071559;28;20043;-61
2021/06/01 14:20:54;;;;;;;0.20;0.20;;;;;;;17.81;29.35;98020.84;5070045;28;20230;-62
2021/06/01 14:29:39;;;;;;;0.20;0.20;;;;;;;17.57;30.08;98020.94;5070430;28;20076;-61
2021/06/01 15:29:16;;;;;;;0.10;0.10;;;;;;;17.34;30.79;98058.72;5070457;28;20359;-64
2021/06/01 15:51:03;;;;;;;0.40;0.40;;;;;;;16.73;30.58;98050.00;5073817;28;20090;-65
2021/06/01 16:22:03;;;;;;;0.35;0.35;;;;;;;15.66;31.19;98079.41;5072990;28;20050;-65